Time;durP1;ratioP1;P1;durP2;ratioP2;P2;SDS_P1;SDS_P2;PMS_P1;PMS_P2;Temp;Humidity;BMP_temperature;BMP_pressure;BME280_temperature;BME280_humidity;BME280_pressure;Samples;Min_cycle;Max_cycle;Signal;HPM_P1;HPM_P2
2022/11/01 00:01:16;;;;;;;0.00;0.00;;;;;;;;;;5084652;28;20508;-74
2022/11/01 00:03:43;;;;;;;0.00;0.00;;;;;;;;;;5084407;28;20369;-75
2022/11/01 00:06:10;;;;;;;0.00;0.00;;;;;;;;;;5084448;28;20071;-75
2022/11/01 00:08:36;;;;;;;0.00;0.00;;;;;;;;;;5084620;28;20024;-75
2022/11/01 00:11:07;;;;;;;0.00;0.00;;;;;;;;;;5084491;28;20032;-75
2022/11/01 00:13:34;;;;;;;0.00;0.00;;;;;;;;;;5084308;28;20544;-75
2022/11/01 00:16:00;;;;;;;0.00;0.00;;;;;;;;;;5052051;28;20033;-75
2022/11/01 00:18:26;;;;;;;0.00;0.00;;;;;;;;;;5084451;28;20025;-75
2022/11/01 00:20:53;;;;;;;0.00;0.00;;;;;;;;;;5084364;28;20032;-75
2022/11/01 00:23:19;;;;;;;0.00;0.00;;;;;;;;;;5052078;28;20200;-75
2022/11/01 00:25:45;;;;;;;0.00;0.00;;;;;;;;;;5084825;28;20039;-75
2022/11/01 00:28:12;;;;;;;0.00;0.00;;;;;;;;;;5088059;28;20082;-75
2022/11/01 00:30:41;;;;;;;0.00;0.00;;;;;;;;;;5055749;28;20475;-74
2022/11/01 00:33:08;;;;;;;0.00;0.00;;;;;;;;;;5055914;28;20035;-75
2022/11/01 00:35:38;;;;;;;0.10;0.10;;;;;;;;;;5087799;28;20056;-75
2022/11/01 00:38:05;;;;;;;0.00;0.00;;;;;;;;;;5059616;28;20056;-76
2022/11/01 00:40:31;;;;;;;0.00;0.00;;;;;;;;;;5090392;28;20033;-75
2022/11/01 00:42:58;;;;;;;0.00;0.00;;;;;;;;;;5075062;28;20112;-75
2022/11/01 00:45:24;;;;;;;0.00;0.00;;;;;;;;;;5075263;28;20032;-75
2022/11/01 00:47:50;;;;;;;0.00;0.00;;;;;;;;;;5075365;28;20017;-75
2022/11/01 00:50:17;;;;;;;0.00;0.00;;;;;;;;;;5075267;28;20437;-75
2022/11/01 00:52:43;;;;;;;0.00;0.00;;;;;;;;;;5073647;28;20024;-76
2022/11/01 00:55:09;;;;;;;0.13;0.00;;;;;;;;;;5093538;28;20049;-76
2022/11/01 00:57:36;;;;;;;0.00;0.00;;;;;;;;;;5056524;28;20028;-74
2022/11/01 01:00:03;;;;;;;0.00;0.00;;;;;;;;;;5055848;28;20320;-75
2022/11/01 01:02:29;;;;;;;0.00;0.00;;;;;;;;;;5070519;28;20028;-75
2022/11/01 01:04:55;;;;;;;0.00;0.00;;;;;;;;;;5056693;28;20162;-75
2022/11/01 01:07:22;;;;;;;0.00;0.00;;;;;;;;;;5056119;28;20440;-74
2022/11/01 01:09:48;;;;;;;0.00;0.00;;;;;;;;;;5074742;28;20478;-75
2022/11/01 01:12:14;;;;;;;0.00;0.00;;;;;;;;;;5056760;28;20020;-75
2022/11/01 01:14:41;;;;;;;1.45;1.35;;;;;;;;;;5074827;28;20039;-74
2022/11/01 01:17:08;;;;;;;0.00;0.00;;;;;;;;;;5055244;28;20048;-75
2022/11/01 01:19:34;;;;;;;0.28;0.28;;;;;;;;;;5089521;28;20028;-75
2022/11/01 01:22:01;;;;;;;0.00;0.00;;;;;;;;;;5074798;28;20024;-75
2022/11/01 01:24:28;;;;;;;0.00;0.00;;;;;;;;;;5090107;28;20028;-76
2022/11/01 01:26:54;;;;;;;0.00;0.00;;;;;;;;;;5086976;28;20085;-75
2022/11/01 01:29:20;;;;;;;0.00;0.00;;;;;;;;;;5089867;28;20560;-76
2022/11/01 01:31:47;;;;;;;0.85;0.85;;;;;;;;;;5087997;28;20489;-75
2022/11/01 01:34:13;;;;;;;0.00;0.00;;;;;;;;;;5068216;28;20036;-76
2022/11/01 01:36:39;;;;;;;0.00;0.00;;;;;;;;;;5071962;28;20032;-76
2022/11/01 01:39:06;;;;;;;0.00;0.00;;;;;;;;;;5070874;28;20582;-75
2022/11/01 01:44:36;;;;;;;0.00;0.00;;;;;;;;;;5078996;28;20044;-75
2022/11/01 01:47:05;;;;;;;0.00;0.00;;;;;;;;;;5058135;28;20412;-75
2022/11/01 01:49:31;;;;;;;0.00;0.00;;;;;;;;;;5070253;28;20471;-78
2022/11/01 01:51:58;;;;;;;0.00;0.00;;;;;;;;;;5054297;28;20029;-77
2022/11/01 01:54:24;;;;;;;0.00;0.00;;;;;;;;;;5082709;28;20157;-74
2022/11/01 01:56:51;;;;;;;0.43;0.43;;;;;;;;;;5076317;28;20071;-74
2022/11/01 01:59:17;;;;;;;0.00;0.00;;;;;;;;;;5072442;28;20106;-75
2022/11/01 02:01:43;;;;;;;0.00;0.00;;;;;;;;;;5071364;28;20443;-75
2022/11/01 02:04:25;;;;;;;0.20;0.20;;;;;;;;;;5070903;28;20032;-76
2022/11/01 02:06:52;;;;;;;0.00;0.00;;;;;;;;;;5068823;28;20047;-75
2022/11/01 02:09:18;;;;;;;9.93;6.53;;;;;;;;;;5053685;28;20040;-75
2022/11/01 02:11:44;;;;;;;0.00;0.00;;;;;;;;;;5066259;28;20036;-76
2022/11/01 02:14:11;;;;;;;0.40;0.40;;;;;;;;;;5078322;28;20470;-76
2022/11/01 02:16:46;;;;;;;0.00;0.00;;;;;;;;;;5072915;28;20033;-75
2022/11/01 02:19:15;;;;;;;0.00;0.00;;;;;;;;;;5072640;28;20100;-76
2022/11/01 02:21:41;;;;;;;0.00;0.00;;;;;;;;;;5072082;28;20581;-75
2022/11/01 02:24:19;;;;;;;7.80;7.43;;;;;;;;;;5072288;28;20051;-77
2022/11/01 02:27:02;;;;;;;0.52;0.52;;;;;;;;;;5069057;28;20040;-77
2022/11/01 02:29:32;;;;;;;0.30;0.30;;;;;;;;;;5067917;28;20038;-77
2022/11/01 02:31:58;;;;;;;0.00;0.00;;;;;;;;;;5066016;28;20059;-79
2022/11/01 02:34:27;;;;;;;0.00;0.00;;;;;;;;;;5072122;28;20039;-77
2022/11/01 02:37:20;;;;;;;0.10;0.10;;;;;;;;;;5081082;28;20422;-76
2022/11/01 02:39:48;;;;;;;0.05;0.05;;;;;;;;;;5034736;28;20368;-77
2022/11/01 02:42:27;;;;;;;2.08;1.98;;;;;;;;;;5071058;28;20032;-78
2022/11/01 02:45:02;;;;;;;1.30;1.27;;;;;;;;;;5070013;28;20024;-78
2022/11/01 02:47:30;;;;;;;1.55;1.45;;;;;;;;;;5072503;28;20024;-78
2022/11/01 02:50:00;;;;;;;2.55;2.35;;;;;;;;;;5069243;28;20111;-77
2022/11/01 02:52:27;;;;;;;1.17;1.08;;;;;;;;;;5071655;28;20042;-78
2022/11/01 02:55:02;;;;;;;8.68;1.27;;;;;;;;;;5099955;28;20578;-75
2022/11/01 02:57:40;;;;;;;3.80;2.75;;;;;;;;;;5071183;28;20028;-75
2022/11/01 03:00:36;;;;;;;7.57;6.93;;;;;;;;;;5071760;28;20039;-77
2022/11/01 03:03:05;;;;;;;4.88;1.33;;;;;;;;;;5050609;28;20054;-76
2022/11/01 03:05:50;;;;;;;12.27;11.27;;;;;;;;;;5072658;28;20013;-75
2022/11/01 03:08:18;;;;;;;14.93;5.53;;;;;;;;;;5067605;28;20026;-77
2022/11/01 03:10:48;;;;;;;5.22;3.08;;;;;;;;;;5080332;28;20024;-76
2022/11/01 03:13:27;;;;;;;8.40;3.42;;;;;;;;;;5079152;28;20020;-77
2022/11/01 03:15:57;;;;;;;2.53;1.67;;;;;;;;;;5073959;28;20111;-76
2022/11/01 03:18:28;;;;;;;2.78;1.58;;;;;;;;;;5076010;28;20072;-78
2022/11/01 03:20:58;;;;;;;18.92;2.30;;;;;;;;;;5085172;28;20008;-76
2022/11/01 03:23:32;;;;;;;3.45;1.92;;;;;;;;;;5095666;28;20150;-79
2022/11/01 03:26:00;;;;;;;6.63;3.05;;;;;;;;;;5095934;28;20066;-77
2022/11/01 03:28:49;;;;;;;6.20;2.70;;;;;;;;;;5089625;28;20012;-77
2022/11/01 03:31:17;;;;;;;7.10;4.07;;;;;;;;;;5075200;28;20037;-79
2022/11/01 03:33:46;;;;;;;4.32;2.40;;;;;;;;;;5074182;28;20081;-76
2022/11/01 03:36:16;;;;;;;4.60;1.88;;;;;;;;;;5078344;28;20032;-77
2022/11/01 03:38:46;;;;;;;8.32;3.55;;;;;;;;;;5069294;28;20485;-77
2022/11/01 03:41:14;;;;;;;6.10;3.20;;;;;;;;;;5065941;28;20451;-76
2022/11/01 03:43:41;;;;;;;11.10;2.25;;;;;;;;;;5072682;28;20036;-75
2022/11/01 03:46:08;;;;;;;1.02;0.93;;;;;;;;;;5070174;28;20051;-75
2022/11/01 03:48:38;;;;;;;0.08;0.08;;;;;;;;;;5069688;28;20375;-76
2022/11/01 03:51:05;;;;;;;1.17;1.08;;;;;;;;;;5067691;28;20409;-76
2022/11/01 03:53:31;;;;;;;1.95;1.85;;;;;;;;;;5067891;28;20041;-76
2022/11/01 03:55:58;;;;;;;0.82;0.80;;;;;;;;;;5067641;28;20032;-77
2022/11/01 03:58:40;;;;;;;1.27;0.43;;;;;;;;;;5069372;28;20540;-78
2022/11/01 04:01:07;;;;;;;1.67;1.33;;;;;;;;;;5049961;28;20474;-79
2022/11/01 04:03:34;;;;;;;3.70;3.50;;;;;;;;;;5075212;28;20016;-78
2022/11/01 04:06:00;;;;;;;0.20;0.20;;;;;;;;;;5058421;28;20067;-77
2022/11/01 04:08:26;;;;;;;0.10;0.10;;;;;;;;;;5073884;28;20059;-79
2022/11/01 04:10:52;;;;;;;0.00;0.00;;;;;;;;;;5077140;28;20033;-79
2022/11/01 04:13:19;;;;;;;1.40;1.13;;;;;;;;;;5069060;28;20031;-78
2022/11/01 04:21:19;;;;;;;0.65;0.65;;;;;;;;;;5082114;28;20034;-78
2022/11/01 04:23:46;;;;;;;3.75;2.13;;;;;;;;;;5088866;28;20037;-79
2022/11/01 04:26:19;;;;;;;1.10;0.75;;;;;;;;;;5076522;28;20085;-76
2022/11/01 04:28:55;;;;;;;2.65;2.42;;;;;;;;;;5087913;28;20085;-77
2022/11/01 04:31:24;;;;;;;1.50;0.77;;;;;;;;;;5054787;28;20025;-77
2022/11/01 04:33:54;;;;;;;0.03;0.03;;;;;;;;;;5073426;28;20039;-78
2022/11/01 04:36:21;;;;;;;0.88;0.82;;;;;;;;;;5073699;28;20040;-78
2022/11/01 04:38:51;;;;;;;3.58;3.25;;;;;;;;;;5056791;28;20382;-77
2022/11/01 04:41:18;;;;;;;4.38;2.70;;;;;;;;;;5073945;28;20031;-76
2022/11/01 04:43:46;;;;;;;1.63;1.52;;;;;;;;;;5076081;28;20032;-77
2022/11/01 04:46:12;;;;;;;18.52;6.78;;;;;;;;;;5073637;28;20065;-78
2022/11/01 04:48:39;;;;;;;1.67;1.17;;;;;;;;;;5076160;28;20103;-78
2022/11/01 04:51:05;;;;;;;4.47;3.05;;;;;;;;;;5052300;28;20078;-76
2022/11/01 04:53:32;;;;;;;7.05;4.80;;;;;;;;;;5065681;28;20036;-76
2022/11/01 04:55:58;;;;;;;1.15;0.98;;;;;;;;;;5056591;28;20540;-77
2022/11/01 04:58:24;;;;;;;1.50;1.45;;;;;;;;;;5078095;28;20024;-80
2022/11/01 05:00:51;;;;;;;5.88;4.97;;;;;;;;;;5078954;28;20025;-81
2022/11/01 05:03:17;;;;;;;16.95;3.47;;;;;;;;;;5061779;28;20021;-78
2022/11/01 05:05:43;;;;;;;2.72;2.17;;;;;;;;;;5072761;28;20071;-78
2022/11/01 05:08:13;;;;;;;11.68;6.72;;;;;;;;;;5078931;28;20042;-81
2022/11/01 05:10:41;;;;;;;1.75;1.38;;;;;;;;;;5067141;28;20029;-78
2022/11/01 05:13:08;;;;;;;1.83;1.67;;;;;;;;;;5063771;28;20074;-78
2022/11/01 05:15:34;;;;;;;2.60;2.05;;;;;;;;;;5067243;28;20021;-78
2022/11/01 05:18:01;;;;;;;8.35;3.00;;;;;;;;;;5073274;28;20023;-79
2022/11/01 05:20:27;;;;;;;2.92;1.55;;;;;;;;;;5056572;28;20023;-79
2022/11/01 05:23:00;;;;;;;10.80;7.13;;;;;;;;;;5068736;28;20040;-80
2022/11/01 05:25:30;;;;;;;0.00;0.00;;;;;;;;;;5069261;28;20025;-80
2022/11/01 05:28:00;;;;;;;0.55;0.55;;;;;;;;;;5071971;28;20131;-78
2022/11/01 05:30:26;;;;;;;8.48;3.60;;;;;;;;;;5051774;28;20052;-79
2022/11/01 05:32:57;;;;;;;6.63;6.00;;;;;;;;;;5051655;28;20128;-80
2022/11/01 05:35:23;;;;;;;7.05;2.17;;;;;;;;;;5062984;28;20025;-78
2022/11/01 05:37:50;;;;;;;3.92;3.00;;;;;;;;;;5069009;28;20031;-81
2022/11/01 05:40:16;;;;;;;4.13;2.35;;;;;;;;;;5055194;28;20035;-79
2022/11/01 05:42:42;;;;;;;0.80;0.68;;;;;;;;;;5066747;28;20529;-80
2022/11/01 05:45:09;;;;;;;0.55;0.55;;;;;;;;;;5069462;28;20368;-79
2022/11/01 05:47:35;;;;;;;2.17;2.00;;;;;;;;;;5060726;28;20506;-81
2022/11/01 05:50:02;;;;;;;2.78;1.25;;;;;;;;;;5063091;28;20031;-80
2022/11/01 05:52:28;;;;;;;11.40;4.57;;;;;;;;;;5053741;28;20100;-82
2022/11/01 05:54:55;;;;;;;3.67;1.52;;;;;;;;;;5093236;28;20048;-81
2022/11/01 05:57:21;;;;;;;0.15;0.15;;;;;;;;;;5076840;28;20031;-80
2022/11/01 05:59:47;;;;;;;3.53;2.83;;;;;;;;;;5089182;28;20028;-81
2022/11/01 06:02:13;;;;;;;6.80;3.70;;;;;;;;;;5087848;28;20024;-80
2022/11/01 06:04:40;;;;;;;0.13;0.13;;;;;;;;;;5107132;27;20028;-81
2022/11/01 06:07:06;;;;;;;2.30;1.00;;;;;;;;;;5070531;28;20122;-80
2022/11/01 06:09:32;;;;;;;4.07;3.88;;;;;;;;;;5095570;28;20055;-81
2022/11/01 06:11:59;;;;;;;23.48;21.92;;;;;;;;;;5093122;28;20047;-80
2022/11/01 06:14:25;;;;;;;5.63;3.25;;;;;;;;;;5079768;28;20382;-79
2022/11/01 06:16:51;;;;;;;1.65;1.08;;;;;;;;;;5091371;28;20666;-77
2022/11/01 06:19:19;;;;;;;1.92;1.65;;;;;;;;;;5073819;28;20474;-77
2022/11/01 06:21:45;;;;;;;1.95;1.85;;;;;;;;;;5086239;28;20028;-79
2022/11/01 06:24:12;;;;;;;1.30;1.20;;;;;;;;;;5071873;28;20045;-83
2022/11/01 06:26:38;;;;;;;0.28;0.13;;;;;;;;;;5098173;28;20035;-79
2022/11/01 06:29:04;;;;;;;0.10;0.10;;;;;;;;;;5099238;28;20039;-78
2022/11/01 06:31:31;;;;;;;18.15;0.73;;;;;;;;;;5092387;28;20016;-81
2022/11/01 06:33:57;;;;;;;0.00;0.00;;;;;;;;;;5080636;28;20028;-77
2022/11/01 06:36:24;;;;;;;4.63;2.58;;;;;;;;;;5097709;28;20024;-77
2022/11/01 06:38:50;;;;;;;1.13;0.70;;;;;;;;;;5083309;28;20024;-78
2022/11/01 06:41:17;;;;;;;0.00;0.00;;;;;;;;;;5096145;28;20114;-77
2022/11/01 06:43:43;;;;;;;1.55;1.45;;;;;;;;;;5075739;28;20173;-79
2022/11/01 06:46:09;;;;;;;5.68;1.92;;;;;;;;;;5091881;28;20027;-76
2022/11/01 06:48:35;;;;;;;5.47;4.97;;;;;;;;;;5071980;28;20032;-79
2022/11/01 06:51:03;;;;;;;4.22;0.80;;;;;;;;;;5088150;28;20043;-79
2022/11/01 06:53:29;;;;;;;31.15;3.65;;;;;;;;;;5108504;28;20049;-80
2022/11/01 06:55:58;;;;;;;3.30;2.42;;;;;;;;;;5087570;28;20228;-80
2022/11/01 06:58:25;;;;;;;0.30;0.30;;;;;;;;;;5069688;28;20021;-81
2022/11/01 07:00:51;;;;;;;2.53;1.95;;;;;;;;;;5083197;28;20102;-80
2022/11/01 07:03:17;;;;;;;29.10;5.80;;;;;;;;;;5081614;28;20024;-83
2022/11/01 07:05:44;;;;;;;0.10;0.10;;;;;;;;;;5082568;28;20038;-79
2022/11/01 07:08:11;;;;;;;2.30;2.10;;;;;;;;;;5070992;28;20107;-81
2022/11/01 07:10:39;;;;;;;26.42;5.68;;;;;;;;;;5085983;28;20029;-78
2022/11/01 07:13:06;;;;;;;0.10;0.10;;;;;;;;;;5057646;28;20047;-78
2022/11/01 07:15:33;;;;;;;0.10;0.10;;;;;;;;;;5072994;28;20119;-78
2022/11/01 07:18:00;;;;;;;5.05;1.95;;;;;;;;;;5073240;28;20025;-79
2022/11/01 07:20:27;;;;;;;1.90;1.80;;;;;;;;;;5081052;28;20019;-83
2022/11/01 07:22:58;;;;;;;8.23;2.42;;;;;;;;;;5085567;28;20029;-82
2022/11/01 07:25:24;;;;;;;4.20;2.40;;;;;;;;;;5080748;28;20025;-80
2022/11/01 07:27:51;;;;;;;5.25;2.15;;;;;;;;;;5073503;28;20028;-82
2022/11/01 07:30:18;;;;;;;3.00;2.72;;;;;;;;;;5056071;28;20020;-82
2022/11/01 07:32:44;;;;;;;22.10;6.95;;;;;;;;;;5079656;28;20036;-81
2022/11/01 07:35:10;;;;;;;1.02;1.00;;;;;;;;;;5072182;28;20108;-83
2022/11/01 07:37:37;;;;;;;9.73;3.08;;;;;;;;;;5061966;28;20052;-82
2022/11/01 07:40:03;;;;;;;0.20;0.20;;;;;;;;;;5078567;28;20021;-82
2022/11/01 07:42:30;;;;;;;7.90;3.05;;;;;;;;;;5075190;28;20051;-82
2022/11/01 07:44:56;;;;;;;0.45;0.45;;;;;;;;;;5088612;28;20043;-81
2022/11/01 07:47:22;;;;;;;2.38;2.22;;;;;;;;;;5072535;28;20020;-80
2022/11/01 07:49:49;;;;;;;0.35;0.35;;;;;;;;;;5068408;28;20033;-81
2022/11/01 07:52:21;;;;;;;0.08;0.08;;;;;;;;;;5059054;28;20020;-81
2022/11/01 07:54:47;;;;;;;0.47;0.47;;;;;;;;;;5096400;28;20068;-81
2022/11/01 07:57:14;;;;;;;0.00;0.00;;;;;;;;;;5071452;28;20036;-79
2022/11/01 07:59:40;;;;;;;0.40;0.40;;;;;;;;;;5071622;28;20029;-81
2022/11/01 08:02:08;;;;;;;4.68;4.38;;;;;;;;;;5070096;28;20021;-80
2022/11/01 08:04:34;;;;;;;2.65;1.95;;;;;;;;;;5071387;28;20028;-80
2022/11/01 08:07:01;;;;;;;3.20;0.88;;;;;;;;;;5072816;28;20039;-80
2022/11/01 08:09:27;;;;;;;0.68;0.65;;;;;;;;;;5074282;28;20110;-78
2022/11/01 08:11:53;;;;;;;5.95;1.88;;;;;;;;;;5073047;28;20039;-81
2022/11/01 08:14:22;;;;;;;9.25;3.10;;;;;;;;;;5069121;28;20032;-80
2022/11/01 08:16:54;;;;;;;0.35;0.35;;;;;;;;;;5065852;28;20398;-81
2022/11/01 08:19:21;;;;;;;0.00;0.00;;;;;;;;;;5066040;28;20024;-80
2022/11/01 08:21:49;;;;;;;0.70;0.52;;;;;;;;;;5072441;28;20055;-80
2022/11/01 08:24:19;;;;;;;0.73;0.60;;;;;;;;;;5071465;28;20048;-79
2022/11/01 08:26:45;;;;;;;1.00;0.98;;;;;;;;;;5066750;28;20027;-77
2022/11/01 08:29:11;;;;;;;1.65;1.55;;;;;;;;;;5075892;28;20031;-80
2022/11/01 08:31:42;;;;;;;4.18;2.85;;;;;;;;;;5077479;28;20035;-81
2022/11/01 08:34:11;;;;;;;2.92;2.67;;;;;;;;;;5079928;28;20376;-81
2022/11/01 08:36:37;;;;;;;2.80;1.33;;;;;;;;;;5074724;28;20051;-81
2022/11/01 08:39:03;;;;;;;0.52;0.52;;;;;;;;;;5070916;28;20020;-80
2022/11/01 08:41:30;;;;;;;3.15;1.67;;;;;;;;;;5077760;28;20029;-81
2022/11/01 08:43:59;;;;;;;16.55;6.55;;;;;;;;;;5079733;28;20079;-81
2022/11/01 08:46:31;;;;;;;17.25;6.93;;;;;;;;;;5107895;28;20039;-81
2022/11/01 08:48:59;;;;;;;0.30;0.30;;;;;;;;;;5070280;28;20087;-82
2022/11/01 08:51:26;;;;;;;3.30;3.00;;;;;;;;;;5074945;28;20500;-79
2022/11/01 08:53:55;;;;;;;1.10;0.95;;;;;;;;;;5073590;28;20739;-77
2022/11/01 08:56:32;;;;;;;2.65;1.55;;;;;;;;;;5054984;28;20059;-79
2022/11/01 08:58:58;;;;;;;0.00;0.00;;;;;;;;;;5070302;28;20063;-78
2022/11/01 09:01:25;;;;;;;12.25;4.38;;;;;;;;;;5075115;28;20032;-78
2022/11/01 09:03:56;;;;;;;17.13;2.60;;;;;;;;;;5072279;28;20028;-80
2022/11/01 09:06:26;;;;;;;2.10;1.92;;;;;;;;;;5069955;28;20028;-80
2022/11/01 09:08:52;;;;;;;0.00;0.00;;;;;;;;;;5072141;28;20020;-81
2022/11/01 09:11:19;;;;;;;0.40;0.10;;;;;;;;;;5072751;28;20067;-82
2022/11/01 09:13:46;;;;;;;0.63;0.63;;;;;;;;;;5086029;28;20056;-80
2022/11/01 09:16:12;;;;;;;0.85;0.75;;;;;;;;;;5073512;28;20089;-81
2022/11/01 09:18:39;;;;;;;40.13;36.83;;;;;;;;;;5072696;28;20028;-80
2022/11/01 09:21:06;;;;;;;0.00;0.00;;;;;;;;;;5103701;28;20040;-83
2022/11/01 09:23:36;;;;;;;4.60;4.22;;;;;;;;;;5087694;28;20084;-81
2022/11/01 09:26:07;;;;;;;2.35;2.08;;;;;;;;;;5061077;28;20462;-82
2022/11/01 09:28:33;;;;;;;0.00;0.00;;;;;;;;;;5070472;28;20024;-81
2022/11/01 09:31:10;;;;;;;1.05;0.90;;;;;;;;;;5073010;28;20024;-82
2022/11/01 09:33:37;;;;;;;0.00;0.00;;;;;;;;;;5067649;28;20056;-74
2022/11/01 09:36:04;;;;;;;1.02;0.50;;;;;;;;;;5056954;28;20356;-75
2022/11/01 09:38:30;;;;;;;0.00;0.00;;;;;;;;;;5053904;28;20026;-76
2022/11/01 09:40:56;;;;;;;0.10;0.10;;;;;;;;;;5068611;28;20020;-75
2022/11/01 09:43:23;;;;;;;0.70;0.70;;;;;;;;;;5073047;28;20059;-77
2022/11/01 09:45:56;;;;;;;0.52;0.52;;;;;;;;;;5073162;28;20052;-76
2022/11/01 09:48:24;;;;;;;2.22;2.13;;;;;;;;;;5058109;28;20039;-76
2022/11/01 09:50:50;;;;;;;3.75;2.08;;;;;;;;;;5054602;28;20071;-76
2022/11/01 09:53:18;;;;;;;0.00;0.00;;;;;;;;;;5070043;28;20025;-76
2022/11/01 09:55:51;;;;;;;0.00;0.00;;;;;;;;;;5070121;28;20111;-76
2022/11/01 09:58:23;;;;;;;0.00;0.00;;;;;;;;;;5070849;28;20379;-77
2022/11/01 10:01:21;;;;;;;0.00;0.00;;;;;;;;;;5053981;28;20086;-76
2022/11/01 10:03:51;;;;;;;0.00;0.00;;;;;;;;;;5065397;28;20153;-76
2022/11/01 10:06:21;;;;;;;0.10;0.10;;;;;;;;;;5067868;28;20111;-77
2022/11/01 10:08:49;;;;;;;1.35;1.35;;;;;;;;;;5053104;28;20036;-77
2022/11/01 10:11:18;;;;;;;0.00;0.00;;;;;;;;;;5068520;28;20025;-76
2022/11/01 10:14:20;;;;;;;0.35;0.35;;;;;;;;;;5072569;28;20029;-78
2022/11/01 10:16:57;;;;;;;0.17;0.17;;;;;;;;;;5005195;28;20416;-78
2022/11/01 10:19:25;;;;;;;2.30;2.20;;;;;;;;;;5064626;28;20055;-77
2022/11/01 10:21:53;;;;;;;0.00;0.00;;;;;;;;;;5055248;28;20028;-75
2022/11/01 10:24:27;;;;;;;0.13;0.13;;;;;;;;;;5069389;28;20039;-75
2022/11/01 10:26:57;;;;;;;0.00;0.00;;;;;;;;;;5048254;28;21688;-75
2022/11/01 10:29:30;;;;;;;0.00;0.00;;;;;;;;;;5050305;28;20031;-75
2022/11/01 10:31:57;;;;;;;0.60;0.60;;;;;;;;;;5064928;28;20028;-75
2022/11/01 10:34:29;;;;;;;0.00;0.00;;;;;;;;;;5063039;28;20052;-74
2022/11/01 10:37:03;;;;;;;1.50;1.40;;;;;;;;;;5067769;28;20060;-74
2022/11/01 10:39:30;;;;;;;0.00;0.00;;;;;;;;;;5067622;28;20020;-75
2022/11/01 10:41:57;;;;;;;0.00;0.00;;;;;;;;;;5070780;28;20020;-76
2022/11/01 10:44:28;;;;;;;0.22;0.22;;;;;;;;;;5062444;28;20035;-74
2022/11/01 10:46:55;;;;;;;0.00;0.00;;;;;;;;;;5065724;28;20036;-74
2022/11/01 10:49:34;;;;;;;2.97;0.95;;;;;;;;;;5050501;28;20062;-75
2022/11/01 10:52:06;;;;;;;3.42;1.85;;;;;;;;;;5062797;28;20077;-74
2022/11/01 10:54:36;;;;;;;0.00;0.00;;;;;;;;;;5061652;28;20041;-78
2022/11/01 10:57:08;;;;;;;0.00;0.00;;;;;;;;;;5067010;28;20391;-75
2022/11/01 10:59:45;;;;;;;0.00;0.00;;;;;;;;;;5076295;28;20081;-74
2022/11/01 11:02:26;;;;;;;0.32;0.32;;;;;;;;;;5070585;28;20028;-76
2022/11/01 11:04:53;;;;;;;0.55;0.55;;;;;;;;;;5071083;28;20027;-77
2022/11/01 11:07:20;;;;;;;0.85;0.80;;;;;;;;;;5082314;28;20028;-79
2022/11/01 11:09:49;;;;;;;0.00;0.00;;;;;;;;;;5068492;28;20034;-77
2022/11/01 11:12:16;;;;;;;0.52;0.52;;;;;;;;;;5069053;28;20047;-79
2022/11/01 11:14:43;;;;;;;0.00;0.00;;;;;;;;;;5073013;28;20067;-79
2022/11/01 11:17:14;;;;;;;0.63;0.63;;;;;;;;;;5100457;28;20024;-77
2022/11/01 11:19:42;;;;;;;0.00;0.00;;;;;;;;;;5078384;28;20028;-78
2022/11/01 11:22:09;;;;;;;0.00;0.00;;;;;;;;;;5066462;28;20017;-77
2022/11/01 11:24:38;;;;;;;0.00;0.00;;;;;;;;;;5069809;28;20017;-79
2022/11/01 11:27:11;;;;;;;0.03;0.03;;;;;;;;;;5068807;28;20027;-77
2022/11/01 11:29:47;;;;;;;0.00;0.00;;;;;;;;;;5065955;28;20151;-77
2022/11/01 11:32:19;;;;;;;0.00;0.00;;;;;;;;;;5070771;28;20024;-78
2022/11/01 11:34:56;;;;;;;0.95;0.95;;;;;;;;;;5069464;28;20040;-79
2022/11/01 11:37:24;;;;;;;0.22;0.22;;;;;;;;;;5064225;28;20056;-79
2022/11/01 11:40:08;;;;;;;0.00;0.00;;;;;;;;;;5070971;28;20467;-80
2022/11/01 11:42:35;;;;;;;0.10;0.10;;;;;;;;;;5072569;28;20170;-78
2022/11/01 11:45:19;;;;;;;0.00;0.00;;;;;;;;;;5086138;28;20433;-76
2022/11/01 11:47:46;;;;;;;2.95;2.85;;;;;;;;;;5065304;28;20036;-78
2022/11/01 11:50:23;;;;;;;0.00;0.00;;;;;;;;;;5066891;28;20028;-78
2022/11/01 11:53:00;;;;;;;4.78;4.57;;;;;;;;;;5084841;28;20029;-78
2022/11/01 11:55:26;;;;;;;0.00;0.00;;;;;;;;;;5074076;28;20489;-77
2022/11/01 11:57:54;;;;;;;0.43;0.43;;;;;;;;;;5063484;28;20036;-78
2022/11/01 12:00:22;;;;;;;0.00;0.00;;;;;;;;;;5068230;28;20050;-81
2022/11/01 12:02:49;;;;;;;0.35;0.35;;;;;;;;;;5100072;28;20270;-80
2022/11/01 12:05:25;;;;;;;3.90;3.70;;;;;;;;;;5070630;28;20511;-77
2022/11/01 12:07:55;;;;;;;0.45;0.45;;;;;;;;;;5065995;28;20059;-78
2022/11/01 12:10:38;;;;;;;30.85;28.33;;;;;;;;;;5076262;28;20047;-78
2022/11/01 12:13:23;;;;;;;0.00;0.00;;;;;;;;;;5069997;28;20021;-78
2022/11/01 12:16:05;;;;;;;0.00;0.00;;;;;;;;;;5067184;28;20032;-77
2022/11/01 12:18:31;;;;;;;0.10;0.10;;;;;;;;;;5071971;28;20032;-77
2022/11/01 12:20:58;;;;;;;0.00;0.00;;;;;;;;;;5065855;28;20029;-76
2022/11/01 12:23:34;;;;;;;0.00;0.00;;;;;;;;;;5067506;28;20535;-79
2022/11/01 12:26:01;;;;;;;0.00;0.00;;;;;;;;;;5073927;28;20025;-80
2022/11/01 12:28:30;;;;;;;1.23;1.00;;;;;;;;;;5072705;28;20098;-77
2022/11/01 12:30:59;;;;;;;6.00;1.85;;;;;;;;;;5108399;28;20029;-76
2022/11/01 12:33:40;;;;;;;0.17;0.17;;;;;;;;;;5071744;28;20415;-77
2022/11/01 12:36:07;;;;;;;1.73;1.73;;;;;;;;;;5071352;28;20028;-76
2022/11/01 12:38:38;;;;;;;0.00;0.00;;;;;;;;;;5079465;28;20021;-77
2022/11/01 12:41:23;;;;;;;0.00;0.00;;;;;;;;;;5091184;28;20068;-77
2022/11/01 12:44:08;;;;;;;1.45;1.45;;;;;;;;;;5096862;28;20028;-77
2022/11/01 12:46:45;;;;;;;6.63;5.47;;;;;;;;;;5097336;28;20021;-77
2022/11/01 12:49:17;;;;;;;0.28;0.28;;;;;;;;;;5089977;28;20031;-76
2022/11/01 12:51:47;;;;;;;0.00;0.00;;;;;;;;;;5092409;28;20032;-76
2022/11/01 12:54:14;;;;;;;0.00;0.00;;;;;;;;;;5095678;28;20033;-75
2022/11/01 12:56:40;;;;;;;0.93;0.77;;;;;;;;;;5078425;28;20037;-77
2022/11/01 12:59:08;;;;;;;0.00;0.00;;;;;;;;;;5093549;28;20021;-78
2022/11/01 13:01:42;;;;;;;0.00;0.00;;;;;;;;;;5083349;28;20046;-77
2022/11/01 13:04:12;;;;;;;0.00;0.00;;;;;;;;;;5079975;28;20067;-76
2022/11/01 13:06:49;;;;;;;0.35;0.35;;;;;;;;;;5061361;28;20479;-75
2022/11/01 13:09:16;;;;;;;0.00;0.00;;;;;;;;;;5072048;28;20025;-76
2022/11/01 13:11:45;;;;;;;0.00;0.00;;;;;;;;;;5074987;28;20033;-76
2022/11/01 13:14:32;;;;;;;0.00;0.00;;;;;;;;;;5074096;28;20040;-76
2022/11/01 13:17:05;;;;;;;0.00;0.00;;;;;;;;;;5072503;28;20047;-76
2022/11/01 13:19:36;;;;;;;0.32;0.32;;;;;;;;;;5058242;28;20036;-76
2022/11/01 13:22:17;;;;;;;0.75;0.75;;;;;;;;;;5072493;28;20036;-74
2022/11/01 13:24:54;;;;;;;0.65;0.65;;;;;;;;;;5074828;28;20386;-74
2022/11/01 13:27:36;;;;;;;0.00;0.00;;;;;;;;;;5103172;28;20047;-73
2022/11/01 13:30:09;;;;;;;0.00;0.00;;;;;;;;;;5075175;28;20039;-73
2022/11/01 13:32:44;;;;;;;0.03;0.03;;;;;;;;;;5081225;28;20119;-73
2022/11/01 13:35:13;;;;;;;0.68;0.68;;;;;;;;;;5071823;28;20028;-73
2022/11/01 13:37:50;;;;;;;0.00;0.00;;;;;;;;;;5079564;28;20066;-73
2022/11/01 13:40:27;;;;;;;0.75;0.75;;;;;;;;;;5076567;28;20095;-73
2022/11/01 13:43:01;;;;;;;1.33;1.27;;;;;;;;;;5106479;28;20050;-72
2022/11/01 13:45:42;;;;;;;14.68;4.30;;;;;;;;;;5094663;28;20076;-73
2022/11/01 13:48:14;;;;;;;0.10;0.10;;;;;;;;;;5076469;28;20115;-72
2022/11/01 13:50:59;;;;;;;0.00;0.00;;;;;;;;;;5075562;28;20090;-73
2022/11/01 13:53:25;;;;;;;1.13;1.02;;;;;;;;;;5079039;28;20028;-73
2022/11/01 13:55:55;;;;;;;12.52;11.73;;;;;;;;;;5090386;28;20024;-73
2022/11/01 13:58:26;;;;;;;0.10;0.10;;;;;;;;;;5075562;28;20036;-73
2022/11/01 14:00:53;;;;;;;2.13;2.10;;;;;;;;;;5056150;28;20020;-73
2022/11/01 14:03:25;;;;;;;0.00;0.00;;;;;;;;;;5052327;28;20544;-73
2022/11/01 14:06:10;;;;;;;1.27;1.27;;;;;;;;;;5094663;28;20020;-72
2022/11/01 14:08:41;;;;;;;6.10;5.75;;;;;;;;;;5076504;28;20024;-72
2022/11/01 14:11:10;;;;;;;0.00;0.00;;;;;;;;;;5076785;28;20390;-72
2022/11/01 14:13:38;;;;;;;9.35;8.82;;;;;;;;;;5094953;28;20047;-73
2022/11/01 14:16:30;;;;;;;15.20;14.30;;;;;;;;;;5087947;28;20035;-73
2022/11/01 14:19:02;;;;;;;0.80;0.80;;;;;;;;;;5070807;28;20234;-73
2022/11/01 14:21:39;;;;;;;0.22;0.22;;;;;;;;;;5055719;28;20534;-72
2022/11/01 14:24:06;;;;;;;0.00;0.00;;;;;;;;;;5060841;28;20024;-71
2022/11/01 14:26:35;;;;;;;5.78;5.43;;;;;;;;;;5061368;28;20029;-74
2022/11/01 14:29:01;;;;;;;0.00;0.00;;;;;;;;;;5055915;28;20025;-73
2022/11/01 14:31:31;;;;;;;1.65;1.65;;;;;;;;;;5055396;28;20394;-72
2022/11/01 14:34:00;;;;;;;0.55;0.55;;;;;;;;;;5073324;28;20032;-72
2022/11/01 14:36:28;;;;;;;0.80;0.80;;;;;;;;;;5054925;28;20081;-72
2022/11/01 14:39:21;;;;;;;0.40;0.40;;;;;;;;;;5055519;28;20027;-73
2022/11/01 14:41:48;;;;;;;0.10;0.10;;;;;;;;;;5069319;28;20032;-73
2022/11/01 14:44:24;;;;;;;0.00;0.00;;;;;;;;;;5088780;28;20020;-72
2022/11/01 14:46:53;;;;;;;7.18;6.78;;;;;;;;;;5072877;28;20021;-72
2022/11/01 14:49:32;;;;;;;0.00;0.00;;;;;;;;;;5073439;28;20418;-72
2022/11/01 14:52:04;;;;;;;0.00;0.00;;;;;;;;;;5054940;28;20035;-72
2022/11/01 14:54:35;;;;;;;1.10;1.10;;;;;;;;;;5066047;28;20159;-73
2022/11/01 14:57:01;;;;;;;0.00;0.00;;;;;;;;;;5108832;28;20035;-73
2022/11/01 14:59:32;;;;;;;0.00;0.00;;;;;;;;;;5108858;28;20031;-72
2022/11/01 15:02:00;;;;;;;0.00;0.00;;;;;;;;;;5093429;28;20466;-73
2022/11/01 15:04:30;;;;;;;0.00;0.00;;;;;;;;;;5093588;28;20027;-73
2022/11/01 15:06:57;;;;;;;0.35;0.35;;;;;;;;;;5108751;28;20058;-73